Time;durP1;ratioP1;P1;durP2;ratioP2;P2;SDS_P1;SDS_P2;PMS_P1;PMS_P2;Temp;Humidity;BMP_temperature;BMP_pressure;BME280_temperature;BME280_humidity;BME280_pressure;Samples;Min_cycle;Max_cycle;Signal;HPM_P1;HPM_P2
2021/05/01 00:01:44;;;;;;;48.83;29.30;;;;;;;11.14;58.18;99562.59;5014669;28;20498;-84
2021/05/01 00:04:10;;;;;;;47.00;28.27;;;;;;;11.10;58.18;99553.19;5015066;28;20073;-84
2021/05/01 00:06:36;;;;;;;46.20;27.75;;;;;;;11.09;58.38;99549.72;5013767;28;20060;-84
2021/05/01 00:09:02;;;;;;;46.85;28.15;;;;;;;11.07;58.37;99552.44;5020991;28;20072;-83
2021/05/01 00:11:28;;;;;;;54.83;29.50;;;;;;;11.05;58.44;99543.81;5033601;28;20053;-84
2021/05/01 00:13:56;;;;;;;50.33;29.98;;;;;;;11.03;58.54;99548.31;5032787;28;20056;-83
2021/05/01 00:16:23;;;;;;;51.90;29.63;;;;;;;11.01;58.55;99549.34;5033769;28;20071;-84
2021/05/01 00:18:50;;;;;;;46.88;27.38;;;;;;;10.99;58.41;99546.81;5032570;28;20064;-84
2021/05/01 00:21:16;;;;;;;49.47;30.08;;;;;;;10.97;58.19;99545.19;5033988;28;20255;-84
2021/05/01 00:23:42;;;;;;;48.17;27.80;;;;;;;10.92;58.33;99542.88;5033484;28;20536;-83
2021/05/01 00:26:11;;;;;;;46.72;28.67;;;;;;;10.88;58.41;99551.91;5033781;28;20049;-84
2021/05/01 00:28:39;;;;;;;48.15;26.80;;;;;;;10.82;58.59;99546.09;5048729;28;20053;-84
2021/05/01 00:31:06;;;;;;;44.75;27.75;;;;;;;10.80;58.63;99544.44;5032748;28;20061;-83
2021/05/01 00:33:32;;;;;;;44.92;27.95;;;;;;;10.77;58.63;99539.41;5032718;28;20053;-83
2021/05/01 00:35:59;;;;;;;46.40;25.77;;;;;;;10.74;58.65;99536.94;5033631;28;20045;-84
2021/05/01 00:38:25;;;;;;;45.38;28.15;;;;;;;10.71;58.65;99537.13;5033164;28;20553;-83
2021/05/01 00:40:51;;;;;;;49.45;28.67;;;;;;;10.67;58.60;99531.22;5033795;28;20049;-84
2021/05/01 00:43:18;;;;;;;48.65;28.63;;;;;;;10.63;58.56;99540.22;5033294;28;20072;-84
2021/05/01 00:45:44;;;;;;;50.97;30.40;;;;;;;10.58;58.59;99534.41;5033387;28;20457;-83
2021/05/01 00:48:11;;;;;;;49.88;28.48;;;;;;;10.52;58.83;99541.75;5033445;28;20041;-83
2021/05/01 00:50:37;;;;;;;50.28;30.58;;;;;;;10.47;59.00;99530.63;5032346;28;20064;-84
2021/05/01 00:53:04;;;;;;;48.80;29.83;;;;;;;10.41;59.00;99530.97;5030587;28;20057;-84
2021/05/01 00:55:36;;;;;;;50.83;30.33;;;;;;;10.35;59.25;99541.88;5048024;28;20053;-83
2021/05/01 00:58:03;;;;;;;48.40;29.40;;;;;;;10.28;59.36;99533.50;5032221;28;20045;-84
2021/05/01 01:02:57;;;;;;;59.85;32.75;;;;;;;10.19;59.50;99532.25;5033339;28;20422;-84
2021/05/01 01:05:24;;;;;;;56.72;31.70;;;;;;;10.12;59.90;99537.03;5029741;28;20069;-84
2021/05/01 01:07:54;;;;;;;53.22;32.42;;;;;;;10.07;60.08;99536.47;5031482;28;20053;-84
2021/05/01 01:10:20;;;;;;;54.83;31.85;;;;;;;10.03;60.11;99535.78;5032469;28;20124;-84
2021/05/01 01:12:46;;;;;;;58.70;32.15;;;;;;;9.99;60.49;99541.31;5033182;28;20469;-83
2021/05/01 01:15:27;;;;;;;61.28;33.85;;;;;;;9.92;61.49;99546.09;5031600;28;20061;-83
2021/05/01 01:17:54;;;;;;;51.83;32.10;;;;;;;9.96;60.62;99533.59;5033074;28;20041;-83
2021/05/01 01:20:21;;;;;;;55.63;33.15;;;;;;;9.97;60.93;99538.78;5032925;28;20056;-83
2021/05/01 01:22:48;;;;;;;52.25;32.75;;;;;;;9.98;61.12;99540.47;5032951;28;20123;-83
2021/05/01 01:25:14;;;;;;;53.90;32.65;;;;;;;10.00;61.12;99535.97;5032807;28;20184;-83
2021/05/01 01:27:45;;;;;;;51.22;29.52;;;;;;;10.02;61.55;99531.47;5032646;28;20049;-84
2021/05/01 01:30:13;;;;;;;55.17;31.77;;;;;;;10.08;60.98;99532.03;5032450;28;20053;-83
2021/05/01 01:32:40;;;;;;;57.17;32.75;;;;;;;10.11;61.16;99526.59;5032312;28;20049;-83
2021/05/01 01:35:10;;;;;;;60.75;33.00;;;;;;;10.15;61.26;99522.84;5032810;28;20465;-83
2021/05/01 01:37:39;;;;;;;52.00;31.42;;;;;;;10.19;61.15;99534.88;5032644;28;20115;-83
2021/05/01 01:40:06;;;;;;;55.88;31.58;;;;;;;10.23;60.99;99536.41;5032737;28;20049;-84
2021/05/01 01:42:32;;;;;;;52.92;30.80;;;;;;;10.26;60.86;99520.44;5033923;28;20449;-83
2021/05/01 01:44:58;;;;;;;49.33;29.05;;;;;;;10.30;61.05;99514.06;5038007;28;20045;-84
2021/05/01 01:47:29;;;;;;;53.60;29.52;;;;;;;10.36;60.98;99523.34;5038954;28;20494;-84
2021/05/01 01:49:55;;;;;;;46.70;29.55;;;;;;;10.42;60.75;99519.50;5038095;28;20052;-84
2021/05/01 01:52:22;;;;;;;53.90;28.83;;;;;;;10.48;60.97;99521.81;5037807;28;20053;-84
2021/05/01 01:54:48;;;;;;;46.50;28.10;;;;;;;10.53;60.88;99519.75;5039295;28;20057;-84
2021/05/01 01:57:14;;;;;;;48.90;29.00;;;;;;;10.58;60.62;99524.72;5039273;28;20053;-84
2021/05/01 01:59:40;;;;;;;51.63;30.50;;;;;;;10.63;60.64;99517.41;5030465;28;20085;-84
2021/05/01 02:02:07;;;;;;;48.38;30.23;;;;;;;10.68;60.31;99522.38;5017969;28;20498;-83
2021/05/01 02:04:33;;;;;;;58.78;29.60;;;;;;;10.71;60.32;99523.97;5019172;28;20046;-84
2021/05/01 02:06:59;;;;;;;50.90;30.63;;;;;;;10.73;60.25;99522.09;5019585;28;20104;-84
2021/05/01 02:09:25;;;;;;;45.03;28.10;;;;;;;10.74;60.27;99513.25;5019363;28;20062;-83
2021/05/01 02:11:51;;;;;;;51.60;29.30;;;;;;;10.77;60.45;99507.81;5019535;28;20062;-84
2021/05/01 02:14:17;;;;;;;49.97;28.95;;;;;;;10.79;60.44;99512.03;5019060;28;20058;-84
2021/05/01 02:16:43;;;;;;;49.20;29.52;;;;;;;10.83;60.45;99510.03;5019089;28;20053;-84
2021/05/01 02:19:09;;;;;;;48.75;28.23;;;;;;;10.87;60.21;99508.09;5019283;28;20045;-84
2021/05/01 02:21:36;;;;;;;47.47;29.75;;;;;;;10.89;59.99;99508.81;5018037;28;20058;-84
2021/05/01 02:24:02;;;;;;;49.03;29.10;;;;;;;10.91;60.09;99509.56;5017865;28;20062;-84
2021/05/01 02:26:29;;;;;;;43.85;26.65;;;;;;;10.93;59.89;99510.31;5019179;28;20053;-84
2021/05/01 02:28:55;;;;;;;49.70;29.75;;;;;;;10.95;59.96;99508.44;5018685;28;20042;-84
2021/05/01 02:31:22;;;;;;;52.03;30.15;;;;;;;10.96;60.15;99502.25;5018907;28;20653;-84
2021/05/01 02:33:48;;;;;;;57.22;31.38;;;;;;;10.96;60.03;99499.59;5019113;28;20061;-84
2021/05/01 02:36:14;;;;;;;56.72;31.00;;;;;;;10.98;59.75;99499.50;5019048;28;20388;-83
2021/05/01 02:38:40;;;;;;;57.70;32.03;;;;;;;10.95;59.65;99498.75;5017084;28;20046;-84
2021/05/01 02:41:06;;;;;;;53.47;31.80;;;;;;;10.92;59.45;99498.09;5028947;28;20136;-83
2021/05/01 02:43:32;;;;;;;55.35;32.88;;;;;;;10.88;59.51;99496.59;5038750;28;20053;-84
2021/05/01 02:46:02;;;;;;;51.75;30.75;;;;;;;10.81;59.45;99496.97;5038716;28;20080;-84
2021/05/01 02:48:31;;;;;;;54.22;31.80;;;;;;;10.74;59.94;99495.69;5038620;28;20049;-83
2021/05/01 02:50:58;;;;;;;53.70;31.90;;;;;;;10.71;59.75;99492.38;5037771;28;20135;-84
2021/05/01 02:53:24;;;;;;;57.05;32.90;;;;;;;10.67;59.76;99503.13;5037752;28;20050;-84
2021/05/01 02:55:50;;;;;;;55.33;32.58;;;;;;;10.65;59.96;99499.72;5015097;28;20462;-83
2021/05/01 02:58:17;;;;;;;57.83;33.95;;;;;;;10.62;60.17;99504.34;5014870;28;20057;-83
2021/05/01 03:00:43;;;;;;;58.35;34.05;;;;;;;10.60;60.08;99508.81;5015181;28;20491;-84
2021/05/01 03:03:09;;;;;;;56.53;34.45;;;;;;;10.57;60.22;99506.41;5013920;28;20049;-84
2021/05/01 03:05:35;;;;;;;58.85;34.53;;;;;;;10.53;60.41;99509.22;5014522;28;20069;-84
2021/05/01 03:08:01;;;;;;;57.15;34.97;;;;;;;10.50;60.67;99513.81;5013433;28;20506;-84
2021/05/01 03:10:29;;;;;;;50.03;32.05;;;;;;;10.45;60.71;99500.94;5014726;28;20133;-84
2021/05/01 03:12:56;;;;;;;50.70;31.50;;;;;;;10.42;60.82;99506.34;5020916;28;20050;-84
2021/05/01 03:15:23;;;;;;;45.72;29.85;;;;;;;10.39;61.09;99501.28;5034160;28;20080;-83
2021/05/01 03:17:50;;;;;;;54.03;30.58;;;;;;;10.36;61.15;99496.22;5033809;28;20064;-84
2021/05/01 03:20:17;;;;;;;47.03;28.83;;;;;;;10.35;61.16;99505.03;5034216;28;20057;-84
2021/05/01 03:22:46;;;;;;;50.35;29.98;;;;;;;10.35;61.45;99505.03;5032821;28;20418;-84
2021/05/01 03:25:13;;;;;;;46.88;30.15;;;;;;;10.35;61.47;99505.03;5033887;28;20050;-84
2021/05/01 03:27:40;;;;;;;46.20;28.83;;;;;;;10.36;61.56;99501.47;5020523;28;20100;-84
2021/05/01 03:30:11;;;;;;;45.75;29.77;;;;;;;10.35;61.83;99503.25;5013955;28;20046;-84
2021/05/01 03:32:38;;;;;;;41.42;27.70;;;;;;;10.37;62.01;99500.53;5014173;28;20068;-84
2021/05/01 03:35:07;;;;;;;45.83;30.50;;;;;;;10.38;61.86;99505.69;5014108;28;20446;-84
2021/05/01 03:37:33;;;;;;;51.13;31.23;;;;;;;10.38;61.77;99495.16;5014026;28;20046;-84
2021/05/01 03:39:59;;;;;;;40.95;28.17;;;;;;;10.39;61.96;99496.03;5014623;28;20049;-84
2021/05/01 03:42:25;;;;;;;42.63;29.30;;;;;;;10.40;62.10;99497.72;5034137;28;20053;-84
2021/05/01 03:44:51;;;;;;;43.70;28.27;;;;;;;10.41;62.24;99491.50;5033754;28;20130;-84
2021/05/01 03:47:18;;;;;;;37.35;26.25;;;;;;;10.42;62.35;99494.03;5030620;28;20045;-84
2021/05/01 03:49:44;;;;;;;48.00;29.42;;;;;;;10.43;62.22;99493.09;5016843;28;20073;-84
2021/05/01 03:52:10;;;;;;;40.42;28.23;;;;;;;10.46;62.24;99491.28;5012662;28;20466;-84
2021/05/01 03:54:36;;;;;;;41.42;27.67;;;;;;;10.48;62.38;99494.63;5021212;28;20057;-84
2021/05/01 03:57:02;;;;;;;39.08;27.25;;;;;;;10.50;62.48;99490.16;5033777;28;20049;-84
2021/05/01 03:59:29;;;;;;;42.33;28.83;;;;;;;10.52;62.38;99493.50;5033267;28;20061;-84
2021/05/01 04:01:55;;;;;;;38.58;27.65;;;;;;;10.54;62.51;99491.63;5033537;28;20123;-84
2021/05/01 04:04:21;;;;;;;35.85;25.67;;;;;;;10.55;62.25;99488.91;5031919;28;20053;-84
2021/05/01 04:06:47;;;;;;;37.92;26.83;;;;;;;10.55;62.29;99488.06;5022099;28;20527;-84
2021/05/01 04:09:14;;;;;;;35.05;25.65;;;;;;;10.54;62.10;99489.84;5013273;28;20479;-84
2021/05/01 04:11:40;;;;;;;36.33;24.85;;;;;;;10.53;62.30;99492.56;5013695;28;20057;-84
2021/05/01 04:14:06;;;;;;;32.97;24.42;;;;;;;10.52;62.15;99485.63;5013138;28;20050;-83
2021/05/01 04:16:32;;;;;;;35.25;24.95;;;;;;;10.50;61.93;99482.25;5013295;28;20054;-84
2021/05/01 04:18:58;;;;;;;37.25;25.75;;;;;;;10.48;61.94;99487.59;5013242;28;20111;-84
2021/05/01 04:21:24;;;;;;;33.88;23.80;;;;;;;10.47;62.04;99477.16;5030659;28;20052;-84
2021/05/01 04:23:50;;;;;;;36.17;26.55;;;;;;;10.45;61.91;99484.28;5019536;28;20530;-84
2021/05/01 04:26:19;;;;;;;41.13;26.92;;;;;;;10.40;62.00;99482.75;5012065;28;20144;-84
2021/05/01 04:28:51;;;;;;;37.10;25.80;;;;;;;10.36;62.00;99483.06;5012851;28;20100;-84
2021/05/01 04:31:17;;;;;;;37.67;25.92;;;;;;;10.32;62.15;99481.53;5013238;28;20054;-84
2021/05/01 04:33:44;;;;;;;33.13;23.85;;;;;;;10.28;62.24;99486.97;5017958;28;20053;-84
2021/05/01 04:36:10;;;;;;;34.55;23.83;;;;;;;10.25;62.64;99486.34;5032778;28;20053;-84
2021/05/01 04:38:36;;;;;;;33.08;24.70;;;;;;;10.24;62.48;99497.78;5032964;28;20406;-84
2021/05/01 04:41:02;;;;;;;35.85;25.20;;;;;;;10.21;62.44;99506.69;5032818;28;20045;-84
2021/05/01 04:43:28;;;;;;;31.67;23.20;;;;;;;10.22;62.54;99497.03;5032716;28;20061;-84
2021/05/01 04:45:55;;;;;;;32.78;23.67;;;;;;;10.21;62.48;99492.72;5032339;28;20507;-84
2021/05/01 04:48:22;;;;;;;37.08;24.42;;;;;;;10.20;62.74;99506.81;5032171;28;20108;-84
2021/05/01 04:50:50;;;;;;;32.08;23.73;;;;;;;10.19;62.62;99505.94;5020610;28;20061;-84
2021/05/01 04:53:18;;;;;;;34.38;23.75;;;;;;;10.18;62.71;99509.53;5013145;28;20054;-84
2021/05/01 04:55:44;;;;;;;31.70;22.55;;;;;;;10.15;62.61;99507.94;5012726;28;20057;-84
2021/05/01 04:58:11;;;;;;;31.33;22.42;;;;;;;10.13;62.86;99511.59;5012566;28;20115;-84
2021/05/01 05:00:37;;;;;;;31.10;22.25;;;;;;;10.12;63.04;99515.13;5012544;28;20054;-84
2021/05/01 05:03:03;;;;;;;30.25;22.67;;;;;;;10.10;63.15;99517.84;5012565;28;20057;-84
2021/05/01 05:05:32;;;;;;;30.13;21.98;;;;;;;10.08;63.06;99514.47;5012384;28;20054;-84
2021/05/01 05:07:58;;;;;;;32.95;22.45;;;;;;;10.10;63.13;99517.03;5012413;28;20496;-84
2021/05/01 05:10:25;;;;;;;30.55;20.60;;;;;;;10.11;63.37;99516.06;5012416;28;20061;-84
2021/05/01 05:12:51;;;;;;;26.25;19.77;;;;;;;10.13;63.54;99522.09;5011261;28;20059;-84
2021/05/01 05:15:17;;;;;;;27.55;18.55;;;;;;;10.15;63.51;99520.22;5012323;28;20061;-84
2021/05/01 05:17:43;;;;;;;26.80;18.65;;;;;;;10.19;63.42;99520.88;5010821;28;20049;-84
2021/05/01 05:20:10;;;;;;;25.92;18.73;;;;;;;10.21;63.60;99516.38;5011008;28;20056;-84
2021/05/01 05:22:36;;;;;;;28.38;19.63;;;;;;;10.24;63.27;99511.78;5018383;28;20540;-84
2021/05/01 05:25:03;;;;;;;29.42;20.42;;;;;;;10.25;63.42;99523.97;5027346;28;20049;-84
2021/05/01 05:27:30;;;;;;;26.10;19.42;;;;;;;10.27;63.44;99527.38;5012466;28;20046;-83
2021/05/01 05:29:56;;;;;;;24.00;17.83;;;;;;;10.27;63.28;99530.00;5011637;28;20108;-84
2021/05/01 05:32:24;;;;;;;25.88;19.13;;;;;;;10.28;63.44;99533.50;5012942;28;20057;-84
2021/05/01 05:34:53;;;;;;;27.90;19.25;;;;;;;10.28;63.45;99542.22;5012978;28;20073;-84
2021/05/01 05:37:20;;;;;;;27.23;19.48;;;;;;;10.28;63.38;99542.22;5012972;28;20050;-83
2021/05/01 05:39:49;;;;;;;27.00;20.27;;;;;;;10.29;63.46;99540.44;5030684;28;20049;-84
2021/05/01 05:42:18;;;;;;;26.35;19.35;;;;;;;10.29;63.60;99545.72;5031285;28;20049;-84
2021/05/01 05:44:47;;;;;;;24.20;18.30;;;;;;;10.28;63.57;99552.75;5014829;28;20507;-84
2021/05/01 05:47:18;;;;;;;25.90;19.38;;;;;;;10.28;63.87;99546.66;5012839;28;20052;-84
2021/05/01 05:49:45;;;;;;;26.90;19.15;;;;;;;10.30;63.76;99543.00;5011773;28;20403;-84
2021/05/01 05:52:12;;;;;;;24.35;18.67;;;;;;;10.32;63.91;99549.94;5011698;28;20451;-83
2021/05/01 05:54:38;;;;;;;26.15;18.63;;;;;;;10.34;63.94;99535.75;5011575;28;20106;-84
2021/05/01 05:57:09;;;;;;;23.20;17.55;;;;;;;10.36;64.41;99543.56;5027098;28;20057;-84
2021/05/01 05:59:36;;;;;;;25.85;17.73;;;;;;;10.41;63.97;99541.50;5031044;28;20049;-84
2021/05/01 06:02:05;;;;;;;25.15;18.15;;;;;;;10.45;63.94;99547.44;5032778;28;20053;-84
2021/05/01 06:04:35;;;;;;;24.20;17.05;;;;;;;10.48;63.84;99555.16;5032465;28;20119;-83
2021/05/01 06:07:09;;;;;;;24.75;16.55;;;;;;;10.51;63.84;99555.00;5031029;28;20137;-84
2021/05/01 06:09:40;;;;;;;22.83;16.10;;;;;;;10.54;63.54;99557.41;5032021;28;20060;-84
2021/05/01 06:12:10;;;;;;;25.77;17.50;;;;;;;10.53;63.33;99555.72;5026194;28;20052;-84
2021/05/01 06:14:43;;;;;;;21.63;15.88;;;;;;;10.50;63.58;99556.75;5012050;28;20256;-84
2021/05/01 06:17:11;;;;;;;23.85;15.95;;;;;;;10.50;63.01;99562.03;5012693;28;20060;-84
2021/05/01 06:19:40;;;;;;;22.08;15.45;;;;;;;10.47;62.98;99564.84;5012436;28;20052;-84
2021/05/01 06:22:07;;;;;;;23.20;15.77;;;;;;;10.47;63.24;99559.56;5012477;28;20046;-84
2021/05/01 06:24:34;;;;;;;23.63;16.27;;;;;;;10.46;63.46;99563.16;5013003;28;20053;-84
2021/05/01 06:27:01;;;;;;;22.23;15.07;;;;;;;10.48;63.37;99561.28;5012716;28;20057;-84
2021/05/01 06:29:30;;;;;;;20.40;15.20;;;;;;;10.49;63.51;99565.59;5023654;28;20049;-84
2021/05/01 06:31:57;;;;;;;23.52;16.00;;;;;;;10.50;63.26;99556.75;5018921;28;20052;-84
2021/05/01 06:34:24;;;;;;;23.30;16.67;;;;;;;10.53;63.16;99561.00;5016441;28;20061;-84
2021/05/01 06:36:50;;;;;;;19.60;14.80;;;;;;;10.54;63.23;99563.53;5016253;28;20049;-84
2021/05/01 06:39:18;;;;;;;20.38;15.70;;;;;;;10.55;63.09;99567.84;5016085;28;20050;-84
2021/05/01 06:41:55;;;;;;;19.60;14.57;;;;;;;10.54;63.31;99570.56;5015834;28;20061;-83
2021/05/01 06:44:38;;;;;;;18.63;13.43;;;;;;;10.51;63.50;99568.16;5020454;28;20058;-84
2021/05/01 06:47:06;;;;;;;18.65;13.68;;;;;;;10.55;63.06;99565.22;5034646;28;20491;-84
2021/05/01 06:49:47;;;;;;;20.27;14.10;;;;;;;10.52;63.60;99565.44;5035303;28;20495;-84
2021/05/01 06:52:15;;;;;;;21.73;14.00;;;;;;;10.57;63.53;99570.41;5036037;28;20049;-84
2021/05/01 06:54:51;;;;;;;20.45;14.48;;;;;;;10.59;63.47;99571.16;5035488;28;20053;-84
2021/05/01 06:57:23;;;;;;;20.17;13.95;;;;;;;10.60;63.30;99561.47;5035840;28;20057;-84
2021/05/01 06:59:56;;;;;;;18.35;14.00;;;;;;;10.61;63.72;99563.19;5017750;28;20057;-84
2021/05/01 07:02:33;;;;;;;22.67;15.65;;;;;;;10.63;63.58;99561.28;5015700;28;20054;-84
2021/05/01 07:04:59;;;;;;;22.83;14.73;;;;;;;10.68;63.01;99567.13;5015694;28;20054;-84
2021/05/01 07:07:28;;;;;;;19.73;14.82;;;;;;;10.68;63.39;99562.72;5015778;28;20061;-84
2021/05/01 07:09:55;;;;;;;19.88;14.98;;;;;;;10.72;63.41;99568.63;5014003;28;20042;-84
2021/05/01 07:12:23;;;;;;;18.73;14.25;;;;;;;10.77;63.20;99569.19;5015489;28;20081;-84
2021/05/01 07:14:50;;;;;;;18.08;14.10;;;;;;;10.83;63.28;99562.72;5020726;28;20517;-84
2021/05/01 07:17:16;;;;;;;23.45;15.68;;;;;;;10.88;63.12;99565.06;5033665;28;20057;-84
2021/05/01 07:19:44;;;;;;;18.98;14.77;;;;;;;10.90;63.11;99561.41;5035304;28;20053;-84
2021/05/01 07:22:11;;;;;;;20.48;14.63;;;;;;;10.94;62.69;99565.53;5034705;28;20053;-84
2021/05/01 07:24:37;;;;;;;24.90;15.55;;;;;;;10.95;62.42;99566.38;5035015;28;20057;-84
2021/05/01 07:27:05;;;;;;;20.15;14.07;;;;;;;10.95;62.74;99567.22;5034549;28;20061;-84
2021/05/01 07:29:39;;;;;;;21.20;14.57;;;;;;;10.95;62.97;99563.72;5023383;28;20140;-84
2021/05/01 07:32:09;;;;;;;19.42;13.98;;;;;;;10.99;62.71;99561.78;5015123;28;20077;-84
2021/05/01 07:34:36;;;;;;;23.75;15.10;;;;;;;11.01;62.73;99563.38;5013460;28;20053;-84
2021/05/01 07:37:08;;;;;;;24.20;15.23;;;;;;;11.04;62.76;99563.19;5015115;28;20125;-84
2021/05/01 07:39:39;;;;;;;21.95;14.95;;;;;;;11.08;63.14;99562.06;5015109;28;20042;-84
2021/05/01 07:42:07;;;;;;;22.05;14.77;;;;;;;11.17;62.94;99554.50;5014388;28;20054;-84
2021/05/01 07:44:34;;;;;;;24.05;14.73;;;;;;;11.25;62.93;99554.03;5015093;28;20111;-84
2021/05/01 07:47:01;;;;;;;23.40;15.80;;;;;;;11.32;63.00;99556.16;5032963;28;20049;-84
2021/05/01 07:49:30;;;;;;;21.33;15.23;;;;;;;11.41;62.84;99551.25;5034315;28;20124;-84
2021/05/01 07:51:56;;;;;;;24.35;14.77;;;;;;;11.51;62.82;99554.16;5033381;28;20064;-84
2021/05/01 07:54:22;;;;;;;24.17;16.02;;;;;;;11.62;62.68;99556.09;5034584;28;20107;-84
2021/05/01 07:56:48;;;;;;;22.88;14.85;;;;;;;11.71;62.41;99552.88;5034120;28;20049;-84
2021/05/01 07:59:15;;;;;;;24.73;15.18;;;;;;;11.81;62.23;99547.84;5033742;28;20049;-84
2021/05/01 08:01:44;;;;;;;25.95;15.30;;;;;;;11.90;62.04;99552.50;5019002;28;20057;-84
2021/05/01 08:04:10;;;;;;;23.27;15.50;;;;;;;12.00;62.01;99558.00;5014331;28;20061;-84
2021/05/01 08:06:37;;;;;;;22.38;14.65;;;;;;;12.09;61.63;99560.06;5014826;28;20068;-84
2021/05/01 08:09:04;;;;;;;21.40;15.38;;;;;;;12.19;61.36;99559.47;5014139;28;20042;-84
2021/05/01 08:11:31;;;;;;;26.30;16.45;;;;;;;12.27;60.84;99564.22;5014917;28;20061;-84
2021/05/01 08:13:57;;;;;;;22.60;15.90;;;;;;;12.33;60.21;99564.66;5013044;28;20058;-84
2021/05/01 08:16:23;;;;;;;22.08;14.77;;;;;;;12.38;60.56;99567.81;5013543;28;20092;-84
2021/05/01 08:18:53;;;;;;;23.00;15.20;;;;;;;12.43;60.57;99564.00;5014745;28;20050;-84
2021/05/01 08:21:19;;;;;;;22.13;14.82;;;;;;;12.52;60.69;99560.75;5014525;28;20057;-84
2021/05/01 08:23:45;;;;;;;17.55;13.88;;;;;;;12.63;60.91;99567.94;5014025;28;20054;-84
2021/05/01 08:26:11;;;;;;;24.90;15.60;;;;;;;12.77;60.62;99577.53;5013992;28;20061;-84
2021/05/01 08:28:37;;;;;;;22.58;15.18;;;;;;;12.89;60.08;99578.47;5014148;28;20458;-84
2021/05/01 08:31:04;;;;;;;23.38;15.00;;;;;;;12.98;59.01;99580.47;5013928;28;20080;-84
2021/05/01 08:33:31;;;;;;;20.95;14.60;;;;;;;13.04;58.88;99571.28;5024143;28;20056;-84
2021/05/01 08:35:58;;;;;;;19.17;13.70;;;;;;;13.09;58.38;99576.25;5033430;28;20049;-84
2021/05/01 08:38:25;;;;;;;18.48;13.25;;;;;;;13.11;58.11;99583.13;5033565;28;20049;-84
2021/05/01 08:40:51;;;;;;;18.98;13.65;;;;;;;13.12;57.80;99582.16;5033823;28;20053;-84
2021/05/01 08:43:17;;;;;;;18.80;13.48;;;;;;;13.13;57.63;99586.47;5033357;28;20506;-84
2021/05/01 08:45:46;;;;;;;18.92;12.82;;;;;;;13.14;57.19;99580.25;5033065;28;20423;-84
2021/05/01 08:48:13;;;;;;;16.75;12.85;;;;;;;13.16;57.59;99578.34;5031922;28;20053;-84
2021/05/01 08:50:46;;;;;;;19.90;13.10;;;;;;;13.19;57.35;99579.09;5013839;28;20112;-84
2021/05/01 08:53:12;;;;;;;14.88;12.00;;;;;;;13.22;57.16;99585.00;5012271;28;20053;-84
2021/05/01 08:55:39;;;;;;;16.13;12.68;;;;;;;13.22;56.25;99584.16;5013825;28;20111;-84
2021/05/01 08:58:08;;;;;;;20.15;13.27;;;;;;;13.19;56.09;99581.75;5013631;28;20050;-84
2021/05/01 09:00:39;;;;;;;16.05;12.32;;;;;;;13.14;55.71;99577.63;5013286;28;20049;-84
2021/05/01 09:03:08;;;;;;;19.27;13.07;;;;;;;13.08;55.50;99574.56;5014004;28;20125;-84
2021/05/01 09:05:37;;;;;;;15.95;11.23;;;;;;;13.05;56.01;99574.78;5013834;28;20034;-84
2021/05/01 09:08:06;;;;;;;20.67;12.52;;;;;;;13.00;55.90;99575.94;5012987;28;20073;-83
2021/05/01 09:10:53;;;;;;;16.50;11.75;;;;;;;12.96;55.59;99568.31;5014798;28;20057;-84
2021/05/01 09:13:22;;;;;;;16.63;11.98;;;;;;;12.99;56.12;99571.63;5013852;28;20054;-84
2021/05/01 09:16:08;;;;;;;15.43;11.75;;;;;;;12.95;55.57;99575.44;5013722;28;20096;-84
2021/05/01 09:18:50;;;;;;;17.92;12.52;;;;;;;12.97;55.70;99570.03;5013419;28;20056;-84
2021/05/01 09:21:19;;;;;;;14.38;11.23;;;;;;;12.99;56.00;99576.91;5013113;28;20529;-84
2021/05/01 09:23:46;;;;;;;17.60;11.05;;;;;;;13.02;56.72;99575.84;5013097;28;20084;-83
2021/05/01 09:26:13;;;;;;;16.38;12.27;;;;;;;13.07;56.70;99573.72;5012338;28;20058;-83
2021/05/01 09:28:50;;;;;;;17.65;11.13;;;;;;;13.14;56.29;99577.63;5013528;28;20391;-83
2021/05/01 09:31:19;;;;;;;14.20;11.93;;;;;;;13.29;56.60;99577.47;5013326;28;20112;-83
2021/05/01 09:33:52;;;;;;;16.60;11.32;;;;;;;13.41;55.68;99576.59;5012989;28;20057;-83
2021/05/01 09:36:25;;;;;;;15.27;11.27;;;;;;;13.58;55.84;99568.44;5013828;28;20092;-83
2021/05/01 09:39:08;;;;;;;;;;;;;;;13.75;56.79;99568.03;5013486;28;20503;-83
2021/05/01 09:41:37;;;;;;;10.25;9.10;;;;;;;14.04;56.02;99566.84;5028427;28;19922;-83
2021/05/01 09:44:04;;;;;;;13.70;10.13;;;;;;;14.22;55.77;99574.34;5011875;28;20057;-84
2021/05/01 09:46:52;;;;;;;12.60;10.52;;;;;;;14.32;53.78;99568.25;5012876;28;20057;-84
2021/05/01 09:49:23;;;;;;;13.23;9.68;;;;;;;14.41;52.43;99568.50;5014058;28;20054;-83
2021/05/01 09:51:56;;;;;;;13.15;8.95;;;;;;;14.45;53.68;99569.97;5011930;28;20058;-83
2021/05/01 09:54:26;;;;;;;12.50;8.77;;;;;;;14.46;52.92;99569.84;5014613;28;20115;-83
2021/05/01 09:56:54;;;;;;;10.68;8.20;;;;;;;14.54;52.47;99560.47;5013178;28;20511;-83
2021/05/01 09:59:20;;;;;;;13.35;9.65;;;;;;;14.64;53.10;99566.75;5013883;28;20049;-83
2021/05/01 10:01:58;;;;;;;12.32;9.15;;;;;;;14.73;51.65;99552.78;5013040;28;20046;-84
2021/05/01 10:04:25;;;;;;;14.23;9.57;;;;;;;14.94;54.43;99553.88;5015712;28;20050;-83
2021/05/01 10:06:59;;;;;;;12.40;9.25;;;;;;;15.12;52.72;99562.19;5016994;28;20053;-83
2021/05/01 10:09:28;;;;;;;12.63;9.07;;;;;;;15.29;51.77;99565.31;5023993;28;20053;-84
2021/05/01 10:12:12;;;;;;;14.32;9.60;;;;;;;15.38;51.12;99559.28;5036617;28;20072;-83
2021/05/01 10:14:43;;;;;;;10.93;8.55;;;;;;;15.50;51.54;99566.25;5017850;28;20092;-83
2021/05/01 10:17:29;;;;;;;13.48;8.80;;;;;;;15.59;51.32;99563.81;5016817;28;20411;-83
2021/05/01 10:20:00;;;;;;;12.80;9.57;;;;;;;15.66;51.02;99554.38;5017525;28;20056;-83
2021/05/01 10:22:29;;;;;;;11.50;8.40;;;;;;;15.65;49.43;99555.34;5017070;28;20053;-83
2021/05/01 10:24:59;;;;;;;11.45;9.02;;;;;;;15.62;49.20;99558.25;5015054;28;20045;-83
2021/05/01 10:27:25;;;;;;;12.23;9.13;;;;;;;15.55;48.73;99557.91;5035623;28;20045;-83
2021/05/01 10:30:04;;;;;;;11.90;9.77;;;;;;;15.42;48.31;99551.91;5035984;28;20041;-83
2021/05/01 10:32:40;;;;;;;15.02;9.05;;;;;;;15.34;48.88;99548.09;5035931;28;20462;-83
2021/05/01 10:35:08;;;;;;;13.65;8.85;;;;;;;15.31;48.82;99550.97;5036469;28;20061;-83
2021/05/01 10:37:39;;;;;;;14.98;10.52;;;;;;;15.23;47.95;99558.69;5036490;28;20212;-83
2021/05/01 10:40:06;;;;;;;12.60;9.52;;;;;;;15.20;48.81;99548.31;5018043;28;20072;-83
2021/05/01 10:42:32;;;;;;;13.73;10.73;;;;;;;15.19;48.96;99549.31;5016500;28;20054;-83
2021/05/01 10:45:00;;;;;;;12.07;10.50;;;;;;;15.22;50.00;99555.19;5016877;28;20058;-83
2021/05/01 10:47:27;;;;;;;15.75;10.20;;;;;;;15.34;50.03;99542.78;5016726;28;20057;-83
2021/05/01 10:50:23;;;;;;;11.60;9.32;;;;;;;15.43;48.46;99549.13;5016421;28;20049;-83
2021/05/01 10:52:49;;;;;;;13.48;9.82;;;;;;;15.55;47.82;99559.72;5025731;28;20152;-83
2021/05/01 10:55:16;;;;;;;12.10;10.00;;;;;;;15.57;47.17;99553.31;5036117;28;20503;-83
2021/05/01 10:57:55;;;;;;;11.80;9.57;;;;;;;15.53;45.09;99551.03;5036260;28;20053;-83
2021/05/01 11:00:22;;;;;;;13.05;9.75;;;;;;;15.55;46.55;99551.78;5019937;28;20058;-83
2021/05/01 11:02:58;;;;;;;13.43;10.30;;;;;;;15.45;44.72;99552.53;5015857;28;20054;-83
2021/05/01 11:05:31;;;;;;;11.98;9.13;;;;;;;15.48;45.58;99559.38;5015584;28;20237;-83
2021/05/01 11:08:17;;;;;;;17.27;9.90;;;;;;;15.66;47.85;99548.25;5015957;28;20507;-83
2021/05/01 11:10:46;;;;;;;13.63;8.90;;;;;;;16.11;49.48;99544.59;5015820;28;20624;-83
2021/05/01 11:13:22;;;;;;;10.73;8.25;;;;;;;16.72;49.30;99548.31;5018733;28;20056;-83
2021/05/01 11:15:50;;;;;;;11.45;9.73;;;;;;;17.51;51.00;99535.25;5034708;28;20056;-84
2021/05/01 11:18:20;;;;;;;10.40;9.25;;;;;;;18.25;47.11;99542.00;5035225;28;20053;-84
2021/05/01 11:20:50;;;;;;;10.15;7.90;;;;;;;18.76;44.97;99531.88;5034564;28;20049;-84
2021/05/01 11:23:17;;;;;;;8.80;7.90;;;;;;;19.02;43.85;99540.06;5034403;28;20544;-84
2021/05/01 11:25:43;;;;;;;10.90;8.02;;;;;;;19.07;42.43;99537.00;5035043;28;20050;-83
2021/05/01 11:28:12;;;;;;;8.90;7.32;;;;;;;18.93;40.55;99542.78;5035028;28;20057;-84